createdAt,value
2023-05-12T00:01:08.508Z,6.81
2023-05-12T00:03:35.373Z,6.81
2023-05-12T00:06:05.264Z,6.79
2023-05-12T00:08:32.048Z,6.79
2023-05-12T00:10:58.816Z,6.80
2023-05-12T00:13:25.537Z,6.78
2023-05-12T00:15:52.328Z,6.77
2023-05-12T00:18:19.242Z,6.76
2023-05-12T00:20:46.021Z,6.74
2023-05-12T00:23:13.057Z,6.68
2023-05-12T00:25:39.770Z,6.66
2023-05-12T00:28:06.419Z,6.66
2023-05-12T00:30:33.134Z,6.66
2023-05-12T00:33:00.116Z,6.66
2023-05-12T00:35:26.885Z,6.67
2023-05-12T00:37:53.804Z,6.66
2023-05-12T00:40:20.742Z,6.62
2023-05-12T00:42:47.954Z,6.59
2023-05-12T00:45:14.705Z,6.59
2023-05-12T00:47:41.564Z,6.59
2023-05-12T00:50:08.832Z,6.59
2023-05-12T00:52:35.757Z,6.58
2023-05-12T00:55:02.514Z,6.60
2023-05-12T00:57:29.325Z,6.60
2023-05-12T00:59:56.426Z,6.59
2023-05-12T01:02:23.364Z,6.57
2023-05-12T01:04:51.545Z,6.55
2023-05-12T01:07:20.983Z,6.54
2023-05-12T01:09:48.050Z,6.53
2023-05-12T01:12:15.283Z,6.50
2023-05-12T01:14:42.788Z,6.47
2023-05-12T01:17:13.400Z,6.41
2023-05-12T01:19:49.435Z,6.36
2023-05-12T01:22:19.354Z,6.30
2023-05-12T01:24:57.548Z,6.27
2023-05-12T01:27:27.371Z,6.25
2023-05-12T01:29:57.923Z,6.23
2023-05-12T01:32:25.073Z,6.21
2023-05-12T01:34:51.916Z,6.19
2023-05-12T01:37:19.349Z,6.18
2023-05-12T01:39:46.368Z,6.18
2023-05-12T01:42:19.410Z,6.18
2023-05-12T01:44:46.757Z,6.18
2023-05-12T01:47:15.769Z,6.17
2023-05-12T01:49:46.490Z,6.16
2023-05-12T01:52:15.461Z,6.15
2023-05-12T01:54:42.095Z,6.14
2023-05-12T01:57:09.036Z,6.12
2023-05-12T01:59:37.057Z,6.06
2023-05-12T02:02:05.307Z,6.01
2023-05-12T02:04:32.161Z,5.97
2023-05-12T02:06:59.754Z,5.91
2023-05-12T02:09:26.714Z,5.87
2023-05-12T02:11:56.298Z,5.84
2023-05-12T02:14:23.001Z,5.84
2023-05-12T02:16:52.749Z,5.83
2023-05-12T02:19:20.826Z,5.80
2023-05-12T02:21:48.436Z,5.76
2023-05-12T02:24:16.614Z,5.76
2023-05-12T02:26:43.658Z,5.75
2023-05-12T02:29:11.679Z,5.75
2023-05-12T02:31:38.467Z,5.75
2023-05-12T02:34:12.892Z,5.74
2023-05-12T02:36:39.533Z,5.73
2023-05-12T02:39:06.165Z,5.74
2023-05-12T02:41:32.903Z,5.76
2023-05-12T02:43:59.806Z,5.77
2023-05-12T02:46:26.581Z,5.78
2023-05-12T02:48:53.658Z,5.80
2023-05-12T02:51:20.369Z,5.82
2023-05-12T02:53:47.191Z,5.86
2023-05-12T02:56:13.909Z,5.90
2023-05-12T02:58:40.657Z,5.89
2023-05-12T03:01:11.253Z,5.83
2023-05-12T03:03:39.186Z,5.74
2023-05-12T03:06:06.648Z,5.64
2023-05-12T03:08:33.304Z,5.59
2023-05-12T03:11:00.094Z,5.58
2023-05-12T03:13:26.793Z,5.60
2023-05-12T03:15:53.512Z,5.61
2023-05-12T03:18:20.691Z,5.62
2023-05-12T03:20:47.454Z,5.62
2023-05-12T03:23:14.192Z,5.63
2023-05-12T03:25:40.896Z,5.68
2023-05-12T03:28:07.658Z,5.76
2023-05-12T03:30:34.408Z,5.86
2023-05-12T03:33:01.253Z,5.97
2023-05-12T03:35:28.099Z,6.08
2023-05-12T03:37:54.834Z,6.18
2023-05-12T03:40:21.997Z,6.29
2023-05-12T03:42:48.854Z,6.40
2023-05-12T03:45:17.993Z,6.51
2023-05-12T03:47:44.747Z,6.62
2023-05-12T03:50:11.721Z,6.72
2023-05-12T03:52:41.130Z,6.81
2023-05-12T03:55:08.204Z,6.91
2023-05-12T03:57:36.711Z,7.02
2023-05-12T04:00:05.246Z,7.11
2023-05-12T04:02:39.527Z,7.21
2023-05-12T04:05:08.274Z,7.31
2023-05-12T04:07:35.576Z,7.42
2023-05-12T04:10:02.861Z,7.55
2023-05-12T04:12:29.738Z,7.70
2023-05-12T04:14:57.303Z,7.87
2023-05-12T04:17:24.870Z,8.05
2023-05-12T04:19:53.440Z,8.23
2023-05-12T04:23:47.598Z,8.51
2023-05-12T04:26:14.414Z,8.64
2023-05-12T04:28:41.219Z,8.78
2023-05-12T04:31:08.774Z,8.90
2023-05-12T04:33:36.447Z,9.02
2023-05-12T04:36:05.693Z,9.12
2023-05-12T04:38:32.347Z,9.22
2023-05-12T04:40:59.979Z,9.32
2023-05-12T04:45:59.760Z,9.52
2023-05-12T04:48:29.102Z,9.62
2023-05-12T04:50:59.116Z,9.73
2023-05-12T04:53:26.849Z,9.84
2023-05-12T04:55:53.637Z,9.96
2023-05-12T04:58:20.563Z,10.08
2023-05-12T05:00:47.824Z,10.19
2023-05-12T05:03:14.659Z,10.32
2023-05-12T05:05:41.564Z,10.43
2023-05-12T05:08:08.356Z,10.55
2023-05-12T05:10:35.318Z,10.67
2023-05-12T05:13:02.889Z,10.79
2023-05-12T05:15:29.736Z,10.90
2023-05-12T05:17:56.614Z,11.00
2023-05-12T05:20:27.955Z,11.10
2023-05-12T05:22:56.136Z,11.21
2023-05-12T05:25:22.951Z,11.32
2023-05-12T05:27:49.672Z,11.42
2023-05-12T05:30:17.072Z,11.54
2023-05-12T05:32:44.617Z,11.64
2023-05-12T05:35:11.506Z,11.74
2023-05-12T05:37:42.727Z,11.85
2023-05-12T05:40:09.877Z,11.96
2023-05-12T05:42:36.634Z,12.08
2023-05-12T05:45:03.628Z,12.21
2023-05-12T05:47:31.967Z,12.32
2023-05-12T05:49:58.776Z,12.44
2023-05-12T05:52:26.140Z,12.58
2023-05-12T05:54:52.796Z,12.69
2023-05-12T05:57:21.349Z,12.81
2023-05-12T05:59:48.571Z,12.95
2023-05-12T06:02:16.589Z,13.07
2023-05-12T06:04:43.332Z,13.20
2023-05-12T06:07:09.978Z,13.34
2023-05-12T06:09:36.677Z,13.46
2023-05-12T06:12:03.333Z,13.59
2023-05-12T06:14:30.165Z,13.70
2023-05-12T06:16:57.108Z,13.81
2023-05-12T06:19:24.008Z,13.89
2023-05-12T06:21:52.776Z,13.96
2023-05-12T06:24:19.515Z,14.02
2023-05-12T06:26:46.362Z,14.09
2023-05-12T06:29:13.610Z,14.15
2023-05-12T06:31:40.343Z,14.23
2023-05-12T06:34:08.455Z,14.32
2023-05-12T06:36:35.112Z,14.42
2023-05-12T06:39:02.133Z,14.50
2023-05-12T06:41:29.148Z,14.54
2023-05-12T06:43:55.954Z,14.61
2023-05-12T06:46:27.560Z,14.71
2023-05-12T06:48:55.752Z,14.83
2023-05-12T06:51:22.366Z,14.95
2023-05-12T06:53:49.116Z,15.07
2023-05-12T06:56:17.071Z,15.17
2023-05-12T06:58:44.078Z,15.25
2023-05-12T07:01:10.977Z,15.33
2023-05-12T07:03:37.712Z,15.40
2023-05-12T07:06:04.755Z,15.47
2023-05-12T07:08:31.445Z,15.52
2023-05-12T07:11:00.346Z,15.56
2023-05-12T07:13:27.060Z,15.59
2023-05-12T07:15:53.768Z,15.63
2023-05-12T07:18:20.500Z,15.69
2023-05-12T07:20:47.334Z,15.77
2023-05-12T07:23:14.125Z,15.87
2023-05-12T07:25:40.895Z,15.97
2023-05-12T07:28:07.675Z,16.04
2023-05-12T07:30:34.366Z,16.12
2023-05-12T07:33:01.455Z,16.20
2023-05-12T07:35:28.526Z,16.28
2023-05-12T07:37:55.157Z,16.37
2023-05-12T07:40:21.792Z,16.44
2023-05-12T07:42:48.526Z,16.51
2023-05-12T07:45:22.872Z,16.59
2023-05-12T07:47:50.811Z,16.67
2023-05-12T07:50:18.431Z,16.69
2023-05-12T07:52:49.371Z,16.71
2023-05-12T07:55:16.845Z,16.72
2023-05-12T07:57:43.802Z,16.71
2023-05-12T08:00:11.332Z,16.68
2023-05-12T08:02:41.798Z,16.63
2023-05-12T08:05:09.837Z,16.62
2023-05-12T08:07:37.283Z,16.68
2023-05-12T08:10:07.162Z,16.72
2023-05-12T08:12:33.926Z,16.76
2023-05-12T08:15:00.836Z,16.83
2023-05-12T08:17:29.279Z,16.88
2023-05-12T08:19:56.567Z,16.89
2023-05-12T08:22:23.320Z,16.86
2023-05-12T08:24:50.082Z,16.84
2023-05-12T08:27:17.949Z,16.87
2023-05-12T08:29:44.610Z,16.92
2023-05-12T08:32:11.950Z,17.04
2023-05-12T08:34:38.650Z,17.11
2023-05-12T08:37:05.473Z,17.15
2023-05-12T08:39:33.972Z,17.16
2023-05-12T08:42:50.443Z,17.18
2023-05-12T08:45:17.210Z,17.17
2023-05-12T08:47:44.982Z,17.16
2023-05-12T08:50:11.778Z,17.18
2023-05-12T08:52:38.499Z,17.19
2023-05-12T08:55:06.984Z,17.21
2023-05-12T08:57:33.652Z,17.27
2023-05-12T09:00:00.397Z,17.33
2023-05-12T09:02:32.732Z,17.35
2023-05-12T09:05:04.927Z,17.41
2023-05-12T09:07:32.217Z,17.54
2023-05-12T09:09:58.984Z,17.70
2023-05-12T09:12:26.189Z,17.82
2023-05-12T09:14:59.199Z,17.94
2023-05-12T09:17:26.247Z,18.09
2023-05-12T09:19:53.092Z,18.23
2023-05-12T09:22:28.568Z,18.34
2023-05-12T09:24:55.828Z,18.41
2023-05-12T09:27:29.394Z,18.42
2023-05-12T09:29:59.618Z,18.43
2023-05-12T09:32:31.881Z,18.44
2023-05-12T09:35:03.885Z,18.50
2023-05-12T09:37:32.456Z,18.57
2023-05-12T09:40:03.021Z,18.68
2023-05-12T09:42:30.583Z,18.78
2023-05-12T09:45:04.759Z,18.87
2023-05-12T09:47:36.271Z,18.97
2023-05-12T09:50:04.090Z,19.04
2023-05-12T09:52:33.115Z,19.07
2023-05-12T09:55:13.292Z,19.14
2023-05-12T09:57:41.180Z,19.24
2023-05-12T10:00:16.946Z,19.34
2023-05-12T10:02:55.675Z,19.42
2023-05-12T10:05:22.533Z,19.49
2023-05-12T10:07:50.951Z,19.53
2023-05-12T10:10:23.503Z,19.58
2023-05-12T10:12:50.283Z,19.60
2023-05-12T10:15:17.672Z,19.64
2023-05-12T10:17:44.763Z,19.69
2023-05-12T10:20:11.710Z,19.71
2023-05-12T10:22:38.910Z,19.75
2023-05-12T10:25:06.947Z,19.78
2023-05-12T10:27:33.619Z,19.80
2023-05-12T10:30:01.540Z,19.80
2023-05-12T10:32:28.261Z,19.87
2023-05-12T10:34:55.067Z,19.94
2023-05-12T10:37:23.261Z,19.96
2023-05-12T10:39:52.293Z,19.98
2023-05-12T10:42:25.644Z,20.02
2023-05-12T10:44:53.229Z,20.01
2023-05-12T10:47:26.841Z,19.94
2023-05-12T10:49:58.720Z,19.88
2023-05-12T10:52:25.989Z,19.87
2023-05-12T10:54:59.910Z,19.92
2023-05-12T10:57:27.049Z,19.95
2023-05-12T10:59:58.612Z,20.01
2023-05-12T11:02:30.824Z,20.08
2023-05-12T11:05:00.257Z,20.13
2023-05-12T11:07:30.320Z,20.15
2023-05-12T11:10:01.273Z,20.17
2023-05-12T11:12:32.549Z,20.15
2023-05-12T11:15:00.684Z,20.07
2023-05-12T11:17:27.645Z,20.02
2023-05-12T11:19:55.124Z,20.00
2023-05-12T11:22:22.586Z,19.98
2023-05-12T11:24:49.698Z,19.99
2023-05-12T11:27:18.264Z,20.01
2023-05-12T11:29:47.147Z,20.05
2023-05-12T11:32:15.640Z,20.04
2023-05-12T11:34:42.603Z,19.96
2023-05-12T11:37:09.409Z,19.84
2023-05-12T11:39:36.286Z,19.67
2023-05-12T11:42:13.087Z,19.48
2023-05-12T11:44:47.979Z,19.37
2023-05-12T11:47:15.622Z,19.35
2023-05-12T11:49:53.255Z,19.37
2023-05-12T11:52:21.019Z,19.38
2023-05-12T11:54:51.957Z,19.38
2023-05-12T11:57:31.826Z,19.41
2023-05-12T12:00:06.960Z,19.49
2023-05-12T12:02:34.049Z,19.58
2023-05-12T12:05:00.970Z,19.62
2023-05-12T12:07:36.495Z,19.67
2023-05-12T12:10:16.432Z,19.74
2023-05-12T12:12:43.302Z,19.80
2023-05-12T12:15:10.989Z,19.83
2023-05-12T12:17:38.263Z,19.83
2023-05-12T12:20:06.495Z,19.78
2023-05-12T12:22:34.611Z,19.68
2023-05-12T12:25:02.465Z,19.57
2023-05-12T12:27:29.214Z,19.45
2023-05-12T12:29:55.945Z,19.31
2023-05-12T12:32:22.643Z,19.24
2023-05-12T12:34:49.510Z,19.26
2023-05-12T12:37:17.157Z,19.29
2023-05-12T12:39:43.974Z,19.32
2023-05-12T12:42:10.598Z,19.35
2023-05-12T12:44:37.264Z,19.40
2023-05-12T12:47:04.732Z,19.44
2023-05-12T12:49:31.431Z,19.44
2023-05-12T12:51:58.153Z,19.47
2023-05-12T12:54:27.337Z,19.55
2023-05-12T12:56:55.558Z,19.64
2023-05-12T12:59:22.546Z,19.74
2023-05-12T13:01:49.303Z,19.82
2023-05-12T13:04:17.252Z,19.91
2023-05-12T13:06:43.926Z,20.01
2023-05-12T13:09:10.831Z,20.09
2023-05-12T13:11:37.630Z,20.13
2023-05-12T13:14:05.007Z,20.19
2023-05-12T13:16:31.725Z,20.27
2023-05-12T13:18:58.905Z,20.33
2023-05-12T13:21:25.731Z,20.37
2023-05-12T13:23:52.354Z,20.42
2023-05-12T13:26:19.055Z,20.45
2023-05-12T13:28:45.807Z,20.47
2023-05-12T13:31:12.476Z,20.48
2023-05-12T13:33:39.318Z,20.41
2023-05-12T13:36:06.642Z,20.33
2023-05-12T13:38:33.965Z,20.27
2023-05-12T13:41:00.688Z,20.19
2023-05-12T13:43:27.404Z,20.12
2023-05-12T13:45:54.110Z,20.05
2023-05-12T13:48:21.052Z,19.94
2023-05-12T13:50:47.979Z,19.80
2023-05-12T13:53:14.647Z,19.71
2023-05-12T13:55:41.392Z,19.61
2023-05-12T13:58:08.099Z,19.53
2023-05-12T14:00:34.939Z,19.44
2023-05-12T14:03:01.775Z,19.40
2023-05-12T14:05:28.934Z,19.39
2023-05-12T14:07:55.810Z,19.40
2023-05-12T14:10:22.447Z,19.44
2023-05-12T14:12:49.422Z,19.49
2023-05-12T14:17:45.854Z,19.55
2023-05-12T14:20:12.717Z,19.58
2023-05-12T14:22:39.528Z,19.59
2023-05-12T14:25:06.592Z,19.59
2023-05-12T14:27:33.273Z,19.62
2023-05-12T14:29:59.943Z,19.65
2023-05-12T14:32:26.821Z,19.67
2023-05-12T14:34:53.525Z,19.67
2023-05-12T14:37:20.334Z,19.68
2023-05-12T14:39:47.095Z,19.64
2023-05-12T14:42:13.827Z,19.59
2023-05-12T14:44:40.667Z,19.57
2023-05-12T14:47:09.128Z,19.57
2023-05-12T14:49:36.105Z,19.59
2023-05-12T14:52:03.041Z,19.61
2023-05-12T14:54:29.658Z,19.63
2023-05-12T14:56:56.778Z,19.67
2023-05-12T14:59:23.516Z,19.71
2023-05-12T15:01:50.317Z,19.72
2023-05-12T15:04:17.145Z,19.71
2023-05-12T15:06:43.807Z,19.68
2023-05-12T15:09:10.597Z,19.67
2023-05-12T15:11:37.829Z,19.66
2023-05-12T15:14:04.977Z,19.66
2023-05-12T15:16:33.180Z,19.64
2023-05-12T15:19:00.018Z,19.64
2023-05-12T15:21:26.894Z,19.64
2023-05-12T15:23:53.520Z,19.65
2023-05-12T15:26:32.785Z,19.66
2023-05-12T15:29:01.716Z,19.67
2023-05-12T15:31:29.227Z,19.65
2023-05-12T15:33:56.759Z,19.62
2023-05-12T15:36:23.502Z,19.57
2023-05-12T15:38:50.169Z,19.51
2023-05-12T15:41:16.813Z,19.47
2023-05-12T15:43:43.499Z,19.46
2023-05-12T15:46:11.612Z,19.45
2023-05-12T15:48:39.423Z,19.44
2023-05-12T15:51:07.817Z,19.42
2023-05-12T15:53:34.660Z,19.38
2023-05-12T15:56:02.039Z,19.32
2023-05-12T15:58:29.075Z,19.28
2023-05-12T16:00:55.960Z,19.27
2023-05-12T16:03:23.668Z,19.27
2023-05-12T16:05:50.656Z,19.26
2023-05-12T16:08:17.395Z,19.26
2023-05-12T16:10:44.146Z,19.27
2023-05-12T16:13:10.836Z,19.27
2023-05-12T16:15:37.607Z,19.27
2023-05-12T16:18:06.381Z,19.27
2023-05-12T16:20:34.432Z,19.26
2023-05-12T16:23:01.180Z,19.25
2023-05-12T16:25:27.963Z,19.23
2023-05-12T16:27:54.595Z,19.20
2023-05-12T16:30:21.353Z,19.17
2023-05-12T16:32:48.038Z,19.12
2023-05-12T16:35:14.795Z,19.07
2023-05-12T16:40:39.995Z,18.97
2023-05-12T16:43:06.884Z,18.87
2023-05-12T16:45:33.656Z,18.79
2023-05-12T16:48:00.462Z,18.70
2023-05-12T16:50:27.305Z,18.60
2023-05-12T16:52:54.147Z,18.50
2023-05-12T16:55:21.466Z,18.41
2023-05-12T16:57:48.341Z,18.31
2023-05-12T17:00:16.147Z,18.22
2023-05-12T17:02:42.917Z,18.11
2023-05-12T17:05:09.865Z,18.00
2023-05-12T17:07:36.592Z,17.89
2023-05-12T17:10:03.433Z,17.78
2023-05-12T17:12:30.161Z,17.67
2023-05-12T17:15:07.008Z,17.56
2023-05-12T17:17:43.875Z,17.45
2023-05-12T17:20:11.729Z,17.33
2023-05-12T17:22:42.023Z,17.24
2023-05-12T17:25:09.341Z,17.12
2023-05-12T17:27:36.556Z,17.00
2023-05-12T17:30:04.613Z,16.86
2023-05-12T17:32:31.657Z,16.72
2023-05-12T17:34:58.357Z,16.56
2023-05-12T17:37:25.446Z,16.41
2023-05-12T17:39:52.514Z,16.25
2023-05-12T17:42:19.263Z,16.11
2023-05-12T17:44:46.060Z,15.99
2023-05-12T17:47:15.987Z,15.88
2023-05-12T17:49:42.731Z,15.76
2023-05-12T17:52:09.359Z,15.65
2023-05-12T17:54:36.551Z,15.54
2023-05-12T17:57:03.337Z,15.41
2023-05-12T17:59:30.040Z,15.28
2023-05-12T18:01:56.802Z,15.18
2023-05-12T18:04:23.671Z,15.07
2023-05-12T18:06:50.349Z,14.97
2023-05-12T18:09:17.804Z,14.87
2023-05-12T18:11:44.840Z,14.77
2023-05-12T18:14:11.538Z,14.64
2023-05-12T18:16:38.363Z,14.52
2023-05-12T18:19:05.125Z,14.37
2023-05-12T18:21:32.751Z,14.22
2023-05-12T18:23:59.511Z,14.09
2023-05-12T18:26:26.852Z,13.98
2023-05-12T18:28:53.516Z,13.87
2023-05-12T18:31:20.364Z,13.75
2023-05-12T18:33:47.961Z,13.63
2023-05-12T18:36:15.208Z,13.51
2023-05-12T18:38:42.442Z,13.40
2023-05-12T18:41:09.382Z,13.30
2023-05-12T18:43:36.768Z,13.20
2023-05-12T18:46:03.823Z,13.11
2023-05-12T18:48:31.196Z,13.06
2023-05-12T18:50:57.927Z,13.00
2023-05-12T18:53:24.860Z,12.92
2023-05-12T18:55:51.652Z,12.83
2023-05-12T18:58:18.412Z,12.76
2023-05-12T19:00:45.121Z,12.74
2023-05-12T19:03:11.904Z,12.73
2023-05-12T19:05:43.181Z,12.71
2023-05-12T19:08:10.937Z,12.67
2023-05-12T19:10:39.695Z,12.63
2023-05-12T19:13:06.866Z,12.61
2023-05-12T19:15:33.520Z,12.58
2023-05-12T19:18:00.403Z,12.52
2023-05-12T19:20:28.304Z,12.45
2023-05-12T19:22:55.246Z,12.38
2023-05-12T19:25:22.357Z,12.30
2023-05-12T19:27:49.241Z,12.25
2023-05-12T19:30:16.700Z,12.19
2023-05-12T19:32:46.242Z,12.12
2023-05-12T19:35:14.400Z,12.07
2023-05-12T19:37:41.039Z,12.04
2023-05-12T19:40:08.292Z,12.02
2023-05-12T19:42:37.776Z,12.01
2023-05-12T19:45:05.251Z,11.99
2023-05-12T19:47:33.520Z,11.94
2023-05-12T19:50:00.639Z,11.89
2023-05-12T19:52:30.464Z,11.85
2023-05-12T19:54:57.386Z,11.79
2023-05-12T19:57:24.080Z,11.73
2023-05-12T19:59:50.870Z,11.71
2023-05-12T20:02:17.666Z,11.67
2023-05-12T20:04:44.372Z,11.63
2023-05-12T20:07:11.069Z,11.59
2023-05-12T20:09:37.800Z,11.58
2023-05-12T20:12:07.947Z,11.56
2023-05-12T20:14:35.689Z,11.53
2023-05-12T20:17:05.675Z,11.50
2023-05-12T20:19:33.231Z,11.49
2023-05-12T20:22:00.061Z,11.44
2023-05-12T20:24:26.834Z,11.41
2023-05-12T20:26:53.738Z,11.39
2023-05-12T20:29:20.911Z,11.37
2023-05-12T20:31:50.888Z,11.35
2023-05-12T20:34:18.651Z,11.29
2023-05-12T20:36:45.445Z,11.23
2023-05-12T20:39:12.726Z,11.17
2023-05-12T20:41:40.152Z,11.11
2023-05-12T20:44:07.034Z,11.03
2023-05-12T20:46:37.107Z,10.97
2023-05-12T20:49:04.985Z,10.92
2023-05-12T20:51:32.486Z,10.85
2023-05-12T20:53:59.406Z,10.80
2023-05-12T20:56:27.106Z,10.74
2023-05-12T20:58:54.061Z,10.64
2023-05-12T21:01:20.851Z,10.59
2023-05-12T21:03:47.736Z,10.55
2023-05-12T21:06:14.901Z,10.53
2023-05-12T21:08:41.624Z,10.52
2023-05-12T21:11:16.107Z,10.51
2023-05-12T21:13:44.180Z,10.48
2023-05-12T21:16:11.329Z,10.47
2023-05-12T21:18:38.267Z,10.46
2023-05-12T21:21:06.126Z,10.47
2023-05-12T21:23:32.880Z,10.48
2023-05-12T21:25:59.726Z,10.47
2023-05-12T21:28:26.777Z,10.47
2023-05-12T21:30:53.475Z,10.46
2023-05-12T21:33:20.115Z,10.44
2023-05-12T21:35:47.001Z,10.41
2023-05-12T21:38:13.752Z,10.36
2023-05-12T21:40:40.458Z,10.24
2023-05-12T21:43:07.197Z,10.09
2023-05-12T21:45:33.915Z,9.97
2023-05-12T21:48:00.703Z,9.87
2023-05-12T21:50:27.440Z,9.82
2023-05-12T21:52:54.084Z,9.79
2023-05-12T21:55:20.912Z,9.76
2023-05-12T21:57:47.611Z,9.71
2023-05-12T22:00:15.164Z,9.62
2023-05-12T22:02:42.135Z,9.57
2023-05-12T22:05:09.056Z,9.56
2023-05-12T22:07:35.795Z,9.56
2023-05-12T22:10:03.725Z,9.57
2023-05-12T22:12:30.474Z,9.55
2023-05-12T22:14:57.213Z,9.50
2023-05-12T22:17:23.920Z,9.46
2023-05-12T22:19:50.996Z,9.45
2023-05-12T22:22:17.975Z,9.46
2023-05-12T22:24:44.640Z,9.46
2023-05-12T22:27:11.656Z,9.47
2023-05-12T22:29:38.289Z,9.47
2023-05-12T22:32:05.552Z,9.46
2023-05-12T22:34:32.207Z,9.43
2023-05-12T22:36:58.872Z,9.39
2023-05-12T22:39:25.680Z,9.34
2023-05-12T22:41:52.398Z,9.31
2023-05-12T22:44:19.062Z,9.28
2023-05-12T22:46:45.980Z,9.25
2023-05-12T22:49:12.683Z,9.19
2023-05-12T22:51:39.380Z,9.15
2023-05-12T22:54:06.136Z,9.11
2023-05-12T22:56:32.782Z,9.09
2023-05-12T22:58:59.456Z,9.08
2023-05-12T23:01:26.107Z,9.06
2023-05-12T23:03:52.904Z,9.05
2023-05-12T23:06:19.800Z,9.02
2023-05-12T23:08:46.480Z,8.99
2023-05-12T23:11:13.236Z,8.93
2023-05-12T23:13:40.262Z,8.84
2023-05-12T23:16:07.416Z,8.72
2023-05-12T23:18:34.221Z,8.62
2023-05-12T23:21:00.939Z,8.54
2023-05-12T23:23:27.569Z,8.50
2023-05-12T23:25:54.294Z,8.47
2023-05-12T23:28:21.023Z,8.47
2023-05-12T23:30:47.632Z,8.47
2023-05-12T23:33:14.441Z,8.46
2023-05-12T23:35:41.176Z,8.44
2023-05-12T23:38:08.111Z,8.41
2023-05-12T23:40:39.021Z,8.36
2023-05-12T23:43:06.405Z,8.34
2023-05-12T23:45:33.224Z,8.35
2023-05-12T23:48:00.189Z,8.35
2023-05-12T23:50:27.205Z,8.36
2023-05-12T23:52:53.987Z,8.35
2023-05-12T23:55:21.525Z,8.35
2023-05-12T23:57:48.367Z,8.36
